DW6794 Weather Reports


Display with metric or nautical units.
time (UTC)temp
F
wind
direction
speed
MPH
gust
MPH
rain 1hr
in
rain 24hr
in
rain mn
in
humidity
%
barometer
mb
20150305023401 55 76 0.0 0.0 0.00 0.01 0.01 73 1009.0
20150305022401 56 76 0.0 5.0 0.00 0.01 0.01 73 1008.2
20150305021401 56 74 3.0 6.0 0.00 0.01 0.01 73 1008.2
20150305020401 56 76 4.0 6.0 0.00 0.01 0.01 72 1008.2
20150305015401 56 78 5.0 6.0 0.00 0.01 0.01 73 1008.2
20150305014401 56 64 0.0 0.0 0.00 0.01 0.01 71 1008.4
20150305013402 57 64 0.0 0.0 0.00 0.01 0.01 70 1008.4
20150305012401 57 65 0.0 6.0 0.00 0.01 0.01 70 1008.1
20150305011401 58 56 1.0 10.0 0.00 0.01 0.01 69 1007.6
20150305010401 59 53 5.0 8.0 0.00 0.01 0.01 68 1007.1
20150305005401 60 57 5.0 8.0 0.00 0.01 0.01 67 1007.1
20150305004402 61 61 0.0 7.0 0.00 0.01 0.01 66 1006.7
20150305003401 62 65 2.0 8.0 0.00 0.01 0.01 67 1006.7
20150305002401 63 335 0.0 0.0 0.00 0.01 0.01 65 1006.6
20150305001401 63 334 0.0 0.0 0.00 0.01 0.01 63 1006.3
20150305000401 64 325 0.0 0.0 0.00 0.01 0.01 63 1006.2
20150304235401 65 305 0.0 0.0 0.00 0.01 0.01 62 1005.7
20150304234401 66 305 0.0 0.0 0.00 0.01 0.01 61 1005.6
20150304233401 67 304 0.0 0.0 0.00 0.01 0.01 59 1005.4
20150304232402 69 304 1.0 5.0 0.00 0.01 0.01 58 1005.4
20150304231401 70 302 3.0 6.0 0.00 0.01 0.01 57 1005.3
20150304230401 71 283 2.0 12.0 0.00 0.01 0.01 55 1005.2
20150304225401 72 255 7.0 13.0 0.00 0.01 0.01 53 1004.9
20150304224403 72 234 7.0 10.0 0.00 0.01 0.01 54 1004.8
20150304223402 72 263 6.0 14.0 0.00 0.01 0.01 54 1004.6
20150304222401 72 250 8.0 15.0 0.00 0.01 0.01 54 1004.4
20150304221401 73 261 7.0 14.0 0.00 0.01 0.01 54 1004.5
20150304220401 73 252 4.0 12.0 0.00 0.01 0.01 55 1004.4
20150304215401 73 223 6.0 12.0 0.00 0.01 0.01 54 1004.4
20150304214402 73 227 9.0 14.0 0.00 0.01 0.01 54 1004.5
20150304213401 73 272 8.0 16.0 0.00 0.01 0.01 55 1004.7
20150304212402 73 225 12.0 17.0 0.00 0.01 0.01 56 1004.7
20150304211402 73 283 7.0 12.0 0.00 0.01 0.01 56 1004.8
20150304210402 73 246 10.0 17.0 0.00 0.01 0.01 55 1005.0
20150304205402 74 263 11.0 18.0 0.00 0.01 0.01 54 1005.0
20150304204402 74 245 13.0 20.0 0.00 0.01 0.01 54 1005.1
20150304203403 74 272 12.0 18.0 0.00 0.01 0.01 55 1005.5
20150304202402 74 268 12.0 18.0 0.00 0.01 0.01 54 1005.5
20150304201402 75 280 12.0 25.0 0.00 0.01 0.01 53 1005.5
20150304200402 74 277 16.0 25.0 0.00 0.01 0.01 53 1005.7
20150304195402 74 248 10.0 20.0 0.00 0.01 0.01 54 1005.9
20150304194402 74 238 14.0 22.0 0.00 0.01 0.01 52 1005.9
20150304193402 74 248 14.0 23.0 0.00 0.01 0.01 54 1006.1
20150304192402 73 258 9.0 16.0 0.00 0.01 0.01 58 1006.3
20150304191402 73 258 10.0 17.0 0.00 0.01 0.01 58 1006.6
20150304190402 72 255 13.0 20.0 0.00 0.01 0.01 58 1006.7
20150304185402 72 238 15.0 24.0 0.00 0.01 0.01 56 1006.9
20150304184402 73 256 15.0 24.0 0.00 0.01 0.01 56 1007.0
20150304183403 73 253 15.0 29.0 0.00 0.01 0.01 57 1007.3
20150304182403 73 261 12.0 26.0 0.00 0.01 0.01 58 1007.3
20150304181403 72 256 13.0 26.0 0.00 0.01 0.01 58 1007.7
20150304180403 72 248 13.0 20.0 0.00 0.01 0.01 59 1007.9
20150304175402 72 257 12.0 24.0 0.00 0.01 0.01 57 1007.8
20150304174402 72 261 11.0 21.0 0.00 0.01 0.01 58 1007.9
20150304173403 73 245 13.0 22.0 0.00 0.01 0.01 59 1007.8
20150304172402 72 237 13.0 24.0 0.00 0.01 0.01 60 1007.7
20150304171403 72 251 17.0 23.0 0.00 0.01 0.01 60 1007.9
20150304170403 71 214 12.0 23.0 0.00 0.01 0.01 66 1008.0
20150304165402 71 244 10.0 16.0 0.00 0.01 0.01 70 1008.1
20150304164403 69 253 13.0 20.0 0.00 0.01 0.01 70 1008.5
20150304163403 69 235 10.0 16.0 0.00 0.01 0.01 77 1008.7
20150304162402 67 228 6.0 13.0 0.00 0.01 0.01 80 1009.0
20150304161403 67 259 6.0 10.0 0.00 0.01 0.01 81 1009.1
20150304160403 66 230 7.0 12.0 0.01 0.01 0.01 82 1009.2
20150304155403 66 245 5.0 10.0 0.01 0.01 0.01 84 1009.2
20150304154403 65 259 5.0 10.0 0.01 0.01 0.01 85 1009.4
20150304153403 64 227 3.0 7.0 0.01 0.01 0.01 87 1009.4
20150304152403 63 273 5.0 12.0 0.01 0.01 0.01 87 1009.5
20150304151403 62 265 6.0 12.0 0.01 0.01 0.01 88 1009.6
20150304150406 61 249 5.0 9.0 0.00 0.00 0.00 88 1009.8
20150304145403 60 267 3.0 10.0 0.00 0.00 0.00 89 1010.1
20150304144403 59 192 1.0 6.0 0.00 0.00 0.00 89 1010.3
20150304143404 56 136 1.0 5.0 0.00 0.00 0.00 90 1010.4
20150304142403 54 136 0.0 0.0 0.00 0.00 0.00 90 1010.5
20150304141403 53 136 0.0 0.0 0.00 0.00 0.00 89 1010.7
20150304140403 52 136 0.0 0.0 0.00 0.00 0.00 89 1011.0
20150304135404 51 136 0.0 0.0 0.00 0.00 0.00 89 1011.2
20150304134403 51 136 0.0 0.0 0.00 0.00 0.00 89 1011.3
20150304133404 50 136 0.0 0.0 0.00 0.00 0.00 89 1011.1
20150304132403 50 140 0.0 0.0 0.00 0.00 0.00 89 1011.0
20150304131403 49 140 0.0 0.0 0.00 0.00 0.00 89 1011.0
20150304130403 49 140 0.0 0.0 0.00 0.00 0.00 88 1011.0
20150304125404 49 140 0.0 0.0 0.00 0.00 0.00 88 1011.0
20150304124403 49 140 0.0 0.0 0.00 0.00 0.00 88 1010.9
20150304123404 49 140 0.0 0.0 0.00 0.00 0.00 88 1011.0
20150304122403 48 140 0.0 0.0 0.00 0.00 0.00 88 1010.6
20150304121404 48 140 0.0 0.0 0.00 0.00 0.00 88 1010.6
20150304120403 48 140 0.0 0.0 0.00 0.00 0.00 88 1010.7
20150304115404 48 140 0.0 0.0 0.00 0.00 0.00 88 1010.5
20150304114403 48 140 0.0 0.0 0.00 0.00 0.00 88 1010.7
20150304113403 48 140 0.0 0.0 0.00 0.00 0.00 88 1010.1
20150304112404 48 140 0.0 0.0 0.00 0.00 0.00 88 1010.1
20150304111404 47 140 0.0 0.0 0.00 0.00 0.00 88 1010.5
20150304110404 47 140 0.0 0.0 0.00 0.00 0.00 88 1010.5
20150304105404 47 140 0.0 0.0 0.00 0.00 0.00 88 1010.6
20150304104404 47 140 0.0 0.0 0.00 0.00 0.00 88 1010.5
20150304103403 47 140 0.0 0.0 0.00 0.00 0.00 88 1010.7
20150304102404 47 140 0.0 0.0 0.00 0.00 0.00 88 1010.6
20150304101404 47 140 0.0 0.0 0.00 0.00 0.00 88 1010.4
20150304100404 47 140 0.0 0.0 0.00 0.00 0.00 88 1010.7
20150304095404 47 140 0.0 0.0 0.00 0.00 0.00 87 1010.9
20150304094404 46 140 0.0 0.0 0.00 0.00 0.00 87 1011.3
20150304093404 46 140 0.0 0.0 0.00 0.00 0.00 87 1011.2
20150304092404 46 140 0.0 0.0 0.00 0.00 0.00 87 1010.9
20150304091404 46 140 0.0 0.0 0.00 0.00 0.00 87 1011.2
20150304090405 46 140 0.0 0.0 0.00 0.00 0.00 87 1010.5
20150304085405 46 140 0.0 5.0 0.00 0.00 0.00 87 1010.2
20150304084404 46 140 3.0 6.0 0.00 0.00 0.00 87 1010.3
20150304083404 45 157 3.0 5.0 0.00 0.00 0.00 87 1010.2
20150304082405 45 157 0.0 0.0 0.00 0.00 0.00 87 1010.3
20150304081404 45 157 0.0 0.0 0.00 0.00 0.00 87 1010.7
20150304080404 44 157 0.0 0.0 0.00 0.00 0.00 86 1011.0
20150304075404 44 157 0.0 0.0 0.00 0.00 0.00 86 1011.3
20150304074405 44 157 0.0 0.0 0.00 0.00 0.00 86 1011.4
20150304073404 44 157 0.0 0.0 0.00 0.00 0.00 86 1011.2
20150304072404 44 157 0.0 0.0 0.00 0.00 0.00 86 1011.2
20150304071405 44 157 0.0 0.0 0.00 0.00 0.00 86 1011.0
20150304070405 44 157 0.0 0.0 0.00 0.00 0.00 85 1011.3
20150304065405 44 157 0.0 0.0 0.00 0.00 0.00 85 1011.4
20150304064405 45 157 0.0 0.0 0.00 0.00 0.00 85 1011.4
20150304063405 45 157 0.0 0.0 0.00 0.00 0.00 85 1011.4
20150304062405 45 157 0.0 0.0 0.00 0.00 0.00 85 1011.4
20150304061405 46 157 0.0 0.0 0.00 0.00 0.00 85 1011.4
20150304060406 46 157 0.0 0.0 0.00 0.00 0.00 85 1011.5
20150304055405 47 157 0.0 0.0 0.00 0.00 0.00 85 1011.8
20150304054405 48 157 0.0 0.0 0.00 0.00 0.00 85 1011.9
20150304053405 48 157 0.0 0.0 0.00 0.00 0.00 85 1011.9
20150304052405 49 157 0.0 0.0 0.00 0.00 0.00 86 1011.9
20150304051405 49 157 0.0 0.0 0.00 0.00 0.00 85 1012.4
20150304050405 49 157 0.0 0.0 0.00 0.00 0.00 85 1012.5
20150304045405 49 157 0.0 0.0 0.00 0.00 0.00 85 1012.6
20150304044406 49 157 0.0 0.0 0.00 0.00 0.00 85 1012.6
20150304043405 49 157 0.0 0.0 0.00 0.00 0.00 85 1012.6
20150304042405 49 157 0.0 0.0 0.00 0.00 0.00 85 1012.6
20150304041405 49 157 0.0 0.0 0.00 0.00 0.00 85 1013.1
20150304040406 49 157 0.0 0.0 0.00 0.00 0.00 85 1013.0
20150304035405 48 157 0.0 0.0 0.00 0.00 0.00 85 1013.0
20150304034344 48 157 0.0 0.0 0.00 0.00 0.00 84 1013.1
20150304033344 49 157 0.0 0.0 0.00 0.00 0.00 84 1013.1
20150304032343 49 157 1.0 2.0 0.00 0.00 0.00 84 1013.1
20150304031343 49 158 0.0 0.0 0.00 0.00 0.00 84 1013.3
20150304030343 49 158 0.0 0.0 0.00 0.00 0.00 84 1013.3
20150304025344 49 202 0.0 0.0 0.00 0.00 0.00 83 1013.7
20150304024343 49 202 0.0 0.0 0.00 0.00 0.00 83 1014.0